createdAt,value
2023-03-16T00:01:10.147Z,13.90
2023-03-16T00:03:37.078Z,13.87
2023-03-16T00:06:04.562Z,13.82
2023-03-16T00:08:31.666Z,13.81
2023-03-16T00:10:58.836Z,13.79
2023-03-16T00:13:25.893Z,13.77
2023-03-16T00:16:04.690Z,13.75
2023-03-16T00:18:39.024Z,13.73
2023-03-16T00:21:07.044Z,13.71
2023-03-16T00:23:38.145Z,13.69
2023-03-16T00:26:09.236Z,13.68
2023-03-16T00:28:36.985Z,13.67
2023-03-16T00:31:12.226Z,13.65
2023-03-16T00:33:40.046Z,13.62
2023-03-16T00:36:09.593Z,13.62
2023-03-16T00:38:39.326Z,13.59
2023-03-16T00:41:09.444Z,13.59
2023-03-16T00:43:41.240Z,13.57
2023-03-16T00:46:10.533Z,13.55
2023-03-16T00:48:40.111Z,13.54
2023-03-16T00:51:09.874Z,13.55
2023-03-16T00:53:37.304Z,13.53
2023-03-16T00:56:04.683Z,13.52
2023-03-16T00:58:36.153Z,13.52
2023-03-16T01:01:06.879Z,13.50
2023-03-16T01:03:34.670Z,13.50
2023-03-16T01:06:06.663Z,13.48
2023-03-16T01:08:33.716Z,13.48
2023-03-16T01:11:22.251Z,13.48
2023-03-16T01:13:51.004Z,13.47
2023-03-16T01:16:19.302Z,13.47
2023-03-16T01:18:47.037Z,13.45
2023-03-16T01:21:16.905Z,13.45
2023-03-16T01:23:44.505Z,13.43
2023-03-16T01:26:11.791Z,13.44
2023-03-16T01:28:39.246Z,13.44
2023-03-16T01:31:11.841Z,13.42
2023-03-16T01:33:39.303Z,13.41
2023-03-16T01:36:13.240Z,13.40
2023-03-16T01:38:40.165Z,13.38
2023-03-16T01:41:07.786Z,13.39
2023-03-16T01:43:37.731Z,13.39
2023-03-16T01:46:07.685Z,13.38
2023-03-16T01:48:56.269Z,13.38
2023-03-16T01:51:27.954Z,13.40
2023-03-16T01:53:59.473Z,13.38
2023-03-16T01:56:40.171Z,13.37
2023-03-16T01:59:14.357Z,13.38
2023-03-16T02:01:41.682Z,13.36
2023-03-16T02:04:25.464Z,13.36
2023-03-16T02:06:55.285Z,13.37
2023-03-16T02:09:22.631Z,13.39
2023-03-16T02:11:50.345Z,13.37
2023-03-16T02:14:17.363Z,13.36
2023-03-16T02:16:45.163Z,13.36
2023-03-16T02:19:20.213Z,13.36
2023-03-16T02:21:54.830Z,13.36
2023-03-16T02:24:22.379Z,13.37
2023-03-16T02:27:10.969Z,13.39
2023-03-16T02:29:53.168Z,13.38
2023-03-16T02:32:21.873Z,13.39
2023-03-16T02:34:48.890Z,13.39
2023-03-16T02:37:15.912Z,13.39
2023-03-16T02:39:45.598Z,13.39
2023-03-16T02:42:17.144Z,13.38
2023-03-16T02:44:51.216Z,13.39
2023-03-16T02:47:41.848Z,13.41
2023-03-16T02:50:10.887Z,13.41
2023-03-16T02:52:38.923Z,13.42
2023-03-16T02:55:07.690Z,13.42
2023-03-16T02:57:34.936Z,13.43
2023-03-16T03:00:01.790Z,13.42
2023-03-16T03:02:28.676Z,13.43
2023-03-16T03:04:55.516Z,13.43
2023-03-16T03:07:22.431Z,13.44
2023-03-16T03:09:49.229Z,13.45
2023-03-16T03:12:16.096Z,13.46
2023-03-16T03:14:42.881Z,13.47
2023-03-16T03:17:10.603Z,13.47
2023-03-16T03:19:37.607Z,13.47
2023-03-16T03:22:06.623Z,13.47
2023-03-16T03:24:34.903Z,13.48
2023-03-16T03:27:06.066Z,13.48
2023-03-16T03:29:36.367Z,13.51
2023-03-16T03:32:06.856Z,13.51
2023-03-16T03:34:33.948Z,13.51
2023-03-16T03:37:01.389Z,13.51
2023-03-16T03:39:28.242Z,13.52
2023-03-16T03:41:55.081Z,13.53
2023-03-16T03:44:23.323Z,13.54
2023-03-16T03:46:51.787Z,13.54
2023-03-16T03:49:18.615Z,13.56
2023-03-16T03:51:45.504Z,13.57
2023-03-16T03:54:12.342Z,13.57
2023-03-16T03:56:39.162Z,13.58
2023-03-16T03:59:06.000Z,13.59
2023-03-16T04:01:33.091Z,13.59
2023-03-16T04:03:59.934Z,13.63
2023-03-16T04:06:26.847Z,13.68
2023-03-16T04:08:54.544Z,13.70
2023-03-16T04:11:22.049Z,13.75
2023-03-16T04:13:53.621Z,13.76
2023-03-16T04:16:21.516Z,13.77
2023-03-16T04:18:48.434Z,13.75
2023-03-16T04:21:17.483Z,13.76
2023-03-16T04:23:44.697Z,13.76
2023-03-16T04:26:11.798Z,13.76
2023-03-16T04:28:39.093Z,13.76
2023-03-16T04:31:08.767Z,13.78
2023-03-16T04:33:37.670Z,13.81
2023-03-16T04:36:05.880Z,13.84
2023-03-16T04:38:36.651Z,13.86
2023-03-16T04:41:05.945Z,13.84
2023-03-16T04:43:34.641Z,13.87
2023-03-16T04:46:02.634Z,13.86
2023-03-16T04:48:30.226Z,13.87
2023-03-16T04:50:57.115Z,13.89
2023-03-16T04:53:24.008Z,13.89
2023-03-16T04:55:51.546Z,13.90
2023-03-16T04:58:18.438Z,13.94
2023-03-16T05:00:45.799Z,13.95
2023-03-16T05:03:12.688Z,13.94
2023-03-16T05:05:40.083Z,13.97
2023-03-16T05:08:07.593Z,13.99
2023-03-16T05:10:34.975Z,14.00
2023-03-16T05:13:01.862Z,13.99
2023-03-16T05:15:28.759Z,14.00
2023-03-16T05:17:56.342Z,14.02
2023-03-16T05:20:24.243Z,14.01
2023-03-16T05:22:51.746Z,14.03
2023-03-16T05:25:20.033Z,14.05
2023-03-16T05:27:50.005Z,14.06
2023-03-16T05:30:18.894Z,14.03
2023-03-16T05:32:46.419Z,14.08
2023-03-16T05:35:13.973Z,14.14
2023-03-16T05:37:41.672Z,14.19
2023-03-16T05:40:23.247Z,14.10
2023-03-16T05:42:55.026Z,14.17
2023-03-16T05:45:21.886Z,14.19
2023-03-16T05:47:49.416Z,14.22
2023-03-16T05:50:17.166Z,14.27
2023-03-16T05:52:45.602Z,14.30
2023-03-16T05:55:14.914Z,14.32
2023-03-16T05:57:42.378Z,14.35
2023-03-16T06:00:15.759Z,14.38
2023-03-16T06:02:51.501Z,14.41
2023-03-16T06:05:20.248Z,14.42
2023-03-16T06:07:47.136Z,14.47
2023-03-16T06:10:14.756Z,14.47
2023-03-16T06:12:41.635Z,14.50
2023-03-16T06:15:10.691Z,14.50
2023-03-16T06:17:39.009Z,14.54
2023-03-16T06:20:11.520Z,14.52
2023-03-16T06:22:40.541Z,14.53
2023-03-16T06:25:08.759Z,14.56
2023-03-16T06:27:36.046Z,14.65
2023-03-16T06:30:03.516Z,14.70
2023-03-16T06:32:30.452Z,14.79
2023-03-16T06:34:59.755Z,14.81
2023-03-16T06:37:26.624Z,14.40
2023-03-16T06:39:54.077Z,14.34
2023-03-16T06:42:20.906Z,14.47
2023-03-16T06:44:47.727Z,14.49
2023-03-16T06:47:14.592Z,14.55
2023-03-16T06:49:41.758Z,14.55
2023-03-16T06:52:10.807Z,14.61
2023-03-16T06:54:37.853Z,14.62
2023-03-16T06:57:04.896Z,14.62
2023-03-16T06:59:32.122Z,14.64
2023-03-16T07:01:59.168Z,14.64
2023-03-16T07:04:26.063Z,14.65
2023-03-16T07:06:52.938Z,14.64
2023-03-16T07:09:19.927Z,14.62
2023-03-16T07:11:46.845Z,14.64
2023-03-16T07:14:13.830Z,14.67
2023-03-16T07:16:40.985Z,14.65
2023-03-16T07:19:07.907Z,14.60
2023-03-16T07:21:40.191Z,14.40
2023-03-16T07:24:09.234Z,14.26
2023-03-16T07:26:36.754Z,14.20
2023-03-16T07:29:06.565Z,14.11
2023-03-16T07:31:35.014Z,14.10
2023-03-16T07:34:03.929Z,14.04
2023-03-16T07:36:30.840Z,14.00
2023-03-16T07:38:57.962Z,13.97
2023-03-16T07:41:25.693Z,13.92
2023-03-16T07:43:53.920Z,13.91
2023-03-16T07:46:21.287Z,13.88
2023-03-16T07:48:48.235Z,13.84
2023-03-16T07:51:15.749Z,13.81
2023-03-16T07:53:42.726Z,13.80
2023-03-16T07:56:09.730Z,13.77
2023-03-16T07:58:36.893Z,13.75
2023-03-16T08:01:04.307Z,13.75
2023-03-16T08:03:32.424Z,13.73
2023-03-16T08:06:01.979Z,13.70
2023-03-16T08:08:28.902Z,13.69
2023-03-16T08:10:56.763Z,13.67
2023-03-16T08:13:24.224Z,13.67
2023-03-16T08:16:02.297Z,13.65
2023-03-16T08:18:30.428Z,13.64
2023-03-16T08:20:58.264Z,13.61
2023-03-16T08:23:26.209Z,13.61
2023-03-16T08:25:58.383Z,13.61
2023-03-16T08:28:26.447Z,13.60
2023-03-16T08:30:56.291Z,13.60
2023-03-16T08:33:23.882Z,13.60
2023-03-16T08:35:51.264Z,13.59
2023-03-16T08:38:19.573Z,13.57
2023-03-16T08:40:50.070Z,13.57
2023-03-16T08:43:19.343Z,13.56
2023-03-16T08:45:47.459Z,13.54
2023-03-16T08:48:15.203Z,13.52
2023-03-16T08:50:44.443Z,13.53
2023-03-16T08:53:13.934Z,13.52
2023-03-16T08:55:45.398Z,13.50
2023-03-16T08:58:14.308Z,13.49
2023-03-16T09:00:41.994Z,13.48
2023-03-16T09:03:11.589Z,13.49
2023-03-16T09:05:38.546Z,13.49
2023-03-16T09:08:06.692Z,13.51
2023-03-16T09:10:34.066Z,13.49
2023-03-16T09:13:01.038Z,13.49
2023-03-16T09:15:29.459Z,13.48
2023-03-16T09:17:58.356Z,13.47
2023-03-16T09:20:29.615Z,13.46
2023-03-16T09:22:57.839Z,13.43
2023-03-16T09:25:26.451Z,13.44
2023-03-16T09:27:54.258Z,13.44
2023-03-16T09:30:21.354Z,13.44
2023-03-16T09:32:49.361Z,13.43
2023-03-16T09:35:16.489Z,13.44
2023-03-16T09:38:01.149Z,13.43
2023-03-16T09:40:32.270Z,13.43
2023-03-16T09:43:11.551Z,13.43
2023-03-16T09:45:55.799Z,13.42
2023-03-16T09:48:27.664Z,13.42
2023-03-16T09:51:00.413Z,13.43
2023-03-16T09:53:38.490Z,13.43
2023-03-16T09:56:11.218Z,13.43
2023-03-16T09:58:38.824Z,13.42
2023-03-16T10:01:40.892Z,13.41
2023-03-16T10:04:25.892Z,13.40
2023-03-16T10:07:04.828Z,13.43
2023-03-16T10:09:55.853Z,13.40
2023-03-16T10:12:30.616Z,13.40
2023-03-16T10:15:05.281Z,13.40
2023-03-16T10:17:42.051Z,13.39
2023-03-16T10:20:18.010Z,13.39
2023-03-16T10:22:47.729Z,13.40
2023-03-16T10:25:44.660Z,13.37
2023-03-16T10:28:20.199Z,13.37
2023-03-16T10:30:50.552Z,13.35
2023-03-16T10:33:30.149Z,13.34
2023-03-16T10:36:16.039Z,13.33
2023-03-16T10:38:49.903Z,13.32
2023-03-16T10:41:20.768Z,13.30
2023-03-16T10:43:55.996Z,13.28
2023-03-16T10:46:26.280Z,13.29
2023-03-16T10:49:01.843Z,13.27
2023-03-16T10:51:36.878Z,13.27
2023-03-16T10:54:25.182Z,13.26
2023-03-16T10:56:53.832Z,13.28
2023-03-16T10:59:35.459Z,13.29
2023-03-16T11:02:15.269Z,13.29
2023-03-16T11:04:42.781Z,13.30
2023-03-16T11:07:18.042Z,13.29
2023-03-16T11:09:47.701Z,13.28
2023-03-16T11:12:24.650Z,13.28
2023-03-16T11:14:52.440Z,13.27
2023-03-16T11:17:43.729Z,13.27
2023-03-16T11:20:23.813Z,13.27
2023-03-16T11:22:54.903Z,13.28
2023-03-16T11:25:30.753Z,13.27
2023-03-16T11:28:12.827Z,13.26
2023-03-16T11:31:05.504Z,13.29
2023-03-16T11:33:35.609Z,13.27
2023-03-16T11:36:21.711Z,13.25
2023-03-16T11:39:00.857Z,13.27
2023-03-16T11:41:55.989Z,13.27
2023-03-16T11:44:44.911Z,13.26
2023-03-16T11:47:30.600Z,13.28
2023-03-16T11:50:27.656Z,13.26
2023-03-16T11:53:14.211Z,13.25
2023-03-16T11:56:10.143Z,13.25
2023-03-16T11:58:38.031Z,13.24
2023-03-16T12:01:23.717Z,13.22
2023-03-16T12:04:11.448Z,13.20
2023-03-16T12:06:44.463Z,13.19
2023-03-16T12:09:44.993Z,13.20
2023-03-16T12:12:24.214Z,13.20
2023-03-16T12:15:33.797Z,13.23
2023-03-16T12:18:16.190Z,13.25
2023-03-16T12:20:56.581Z,13.27
2023-03-16T12:23:50.788Z,13.29
2023-03-16T12:26:19.802Z,13.29
2023-03-16T12:28:48.602Z,13.29
2023-03-16T12:31:43.360Z,13.25
2023-03-16T12:34:28.478Z,13.26
2023-03-16T12:37:14.697Z,13.29
2023-03-16T12:40:29.202Z,13.31
2023-03-16T12:43:24.243Z,13.29
2023-03-16T12:46:06.494Z,13.27
2023-03-16T12:48:40.873Z,13.25
2023-03-16T12:51:08.138Z,13.24
2023-03-16T12:53:56.188Z,13.26
2023-03-16T12:56:32.955Z,13.25
2023-03-16T12:59:06.074Z,13.24
2023-03-16T13:01:43.999Z,13.25
2023-03-16T13:04:23.794Z,13.24
2023-03-16T13:07:03.439Z,13.24
2023-03-16T13:09:34.560Z,13.25
2023-03-16T13:12:05.292Z,13.24
2023-03-16T13:14:43.118Z,13.26
2023-03-16T13:17:16.742Z,13.25
2023-03-16T13:19:48.033Z,13.25
2023-03-16T13:22:29.467Z,13.26
2023-03-16T13:25:00.928Z,13.31
2023-03-16T13:27:30.374Z,13.34
2023-03-16T13:30:00.545Z,13.30
2023-03-16T13:32:32.486Z,13.30
2023-03-16T13:35:02.810Z,13.28
2023-03-16T13:37:30.620Z,13.29
2023-03-16T13:40:03.330Z,13.28
2023-03-16T13:42:33.012Z,13.29
2023-03-16T13:45:11.554Z,13.27
2023-03-16T13:47:44.124Z,13.30
2023-03-16T13:50:13.033Z,13.32
2023-03-16T13:52:40.533Z,13.30
2023-03-16T13:55:16.515Z,13.31
2023-03-16T13:57:45.819Z,13.31
2023-03-16T14:00:44.193Z,13.31
2023-03-16T14:03:17.990Z,13.33
2023-03-16T14:05:45.978Z,13.33
2023-03-16T14:08:19.130Z,13.33
2023-03-16T14:10:47.188Z,13.31
2023-03-16T14:13:29.536Z,13.33
2023-03-16T14:16:13.491Z,13.33
2023-03-16T14:18:56.208Z,13.35
2023-03-16T14:21:26.165Z,13.34
2023-03-16T14:24:06.124Z,13.31
2023-03-16T14:26:48.384Z,13.29
2023-03-16T14:29:25.144Z,13.27
2023-03-16T14:31:52.070Z,13.27
2023-03-16T14:34:36.475Z,13.27
2023-03-16T14:37:16.171Z,13.26
2023-03-16T14:39:43.824Z,13.25
2023-03-16T14:42:27.888Z,13.27
2023-03-16T14:44:56.894Z,13.27
2023-03-16T14:47:31.104Z,13.29
2023-03-16T14:50:04.776Z,13.26
2023-03-16T14:52:31.952Z,13.29
2023-03-16T14:55:03.011Z,13.28
2023-03-16T14:57:30.762Z,13.26
2023-03-16T14:59:57.708Z,13.26
2023-03-16T15:02:30.954Z,13.29
2023-03-16T15:05:01.477Z,13.27
2023-03-16T15:07:31.643Z,13.34
2023-03-16T15:10:10.746Z,13.35
2023-03-16T15:12:38.242Z,13.35
2023-03-16T15:15:25.434Z,13.34
2023-03-16T15:17:55.284Z,13.33
2023-03-16T15:20:25.992Z,13.36
2023-03-16T15:22:53.921Z,13.36
2023-03-16T15:25:38.674Z,13.35
2023-03-16T15:28:19.146Z,13.27
2023-03-16T15:30:57.702Z,13.19
2023-03-16T15:33:26.030Z,13.15
2023-03-16T15:35:58.957Z,13.21
2023-03-16T15:38:29.428Z,13.35
2023-03-16T15:40:56.578Z,13.44
2023-03-16T15:43:27.500Z,13.51
2023-03-16T15:45:56.604Z,13.57
2023-03-16T15:48:24.739Z,13.60
2023-03-16T15:51:02.410Z,13.65
2023-03-16T15:53:36.098Z,13.68
2023-03-16T15:56:09.720Z,13.72
2023-03-16T15:58:38.369Z,13.75
2023-03-16T16:01:08.110Z,13.80
2023-03-16T16:03:35.260Z,13.83
2023-03-16T16:06:02.664Z,13.88
2023-03-16T16:08:29.684Z,13.90
2023-03-16T16:10:57.489Z,13.95
2023-03-16T16:13:44.770Z,13.98
2023-03-16T16:16:18.426Z,14.08
2023-03-16T16:18:46.910Z,14.17
2023-03-16T16:21:27.200Z,14.24
2023-03-16T16:23:54.686Z,14.32
2023-03-16T16:26:55.275Z,14.36
2023-03-16T16:29:27.461Z,14.41
2023-03-16T16:31:55.615Z,14.52
2023-03-16T16:34:27.588Z,14.59
2023-03-16T16:36:56.274Z,14.63
2023-03-16T16:39:23.754Z,14.70
2023-03-16T16:41:54.941Z,14.77
2023-03-16T16:44:23.846Z,14.68
2023-03-16T16:46:52.552Z,14.72
2023-03-16T16:49:31.072Z,14.86
2023-03-16T16:51:58.633Z,14.97
2023-03-16T16:54:29.248Z,15.03
2023-03-16T16:56:58.221Z,15.11
2023-03-16T16:59:38.262Z,15.18
2023-03-16T17:02:22.853Z,15.23
2023-03-16T17:04:51.156Z,15.25
2023-03-16T17:07:18.346Z,15.30
2023-03-16T17:09:45.480Z,15.32
2023-03-16T17:12:22.986Z,15.37
2023-03-16T17:14:50.994Z,15.42
2023-03-16T17:17:18.776Z,15.45
2023-03-16T17:19:47.301Z,15.49
2023-03-16T17:22:25.035Z,15.52
2023-03-16T17:24:52.826Z,15.52
2023-03-16T17:27:27.363Z,15.51
2023-03-16T17:29:55.826Z,15.52
2023-03-16T17:32:23.583Z,15.53
2023-03-16T17:34:51.316Z,15.52
2023-03-16T17:37:21.408Z,15.50
2023-03-16T17:39:48.627Z,15.48
2023-03-16T17:42:18.817Z,15.45
2023-03-16T17:44:49.027Z,15.43
2023-03-16T17:47:27.922Z,15.43
2023-03-16T17:49:55.331Z,15.41
2023-03-16T17:52:25.791Z,15.39
2023-03-16T17:54:54.057Z,15.39
2023-03-16T17:57:32.522Z,15.38
2023-03-16T18:00:03.285Z,15.36
2023-03-16T18:02:51.958Z,15.37
2023-03-16T18:05:27.619Z,15.37
2023-03-16T18:07:56.921Z,15.38
2023-03-16T18:10:29.142Z,15.38
2023-03-16T18:13:18.032Z,15.37
2023-03-16T18:15:47.210Z,15.37
2023-03-16T18:18:22.131Z,15.34
2023-03-16T18:20:51.276Z,15.24
2023-03-16T18:23:30.349Z,15.22
2023-03-16T18:26:03.796Z,15.24
2023-03-16T18:28:32.410Z,15.27
2023-03-16T18:31:00.795Z,15.31
2023-03-16T18:33:33.110Z,15.35
2023-03-16T18:36:03.730Z,15.39
2023-03-16T18:38:33.893Z,15.45
2023-03-16T18:41:03.044Z,15.52
2023-03-16T18:43:29.980Z,15.59
2023-03-16T18:45:57.275Z,15.63
2023-03-16T18:48:33.503Z,15.68
2023-03-16T18:51:01.229Z,15.71
2023-03-16T18:53:29.372Z,15.74
2023-03-16T18:55:57.632Z,15.76
2023-03-16T18:58:25.635Z,15.80
2023-03-16T19:00:58.472Z,15.87
2023-03-16T19:03:25.821Z,15.95
2023-03-16T19:05:54.749Z,15.81
2023-03-16T19:08:22.418Z,15.77
2023-03-16T19:10:54.006Z,15.79
2023-03-16T19:13:22.172Z,15.86
2023-03-16T19:15:52.505Z,15.95
2023-03-16T19:18:19.958Z,16.04
2023-03-16T19:20:50.239Z,16.10
2023-03-16T19:23:26.203Z,16.14
2023-03-16T19:25:54.847Z,16.15
2023-03-16T19:28:39.766Z,16.20
2023-03-16T19:31:17.005Z,16.25
2023-03-16T19:33:44.288Z,16.31
2023-03-16T19:36:24.637Z,16.31
2023-03-16T19:38:52.701Z,16.32
2023-03-16T19:41:31.201Z,16.34
2023-03-16T19:44:06.651Z,16.34
2023-03-16T19:46:33.894Z,16.38
2023-03-16T19:49:01.585Z,16.43
2023-03-16T19:51:29.580Z,16.45
2023-03-16T19:53:57.045Z,16.49
2023-03-16T19:56:26.935Z,16.51
2023-03-16T19:58:55.115Z,16.56
2023-03-16T20:01:30.436Z,16.59
2023-03-16T20:03:59.889Z,16.62
2023-03-16T20:06:27.656Z,16.63
2023-03-16T20:09:16.263Z,16.67
2023-03-16T20:11:45.595Z,16.67
2023-03-16T20:14:32.383Z,16.61
2023-03-16T20:17:00.907Z,16.62
2023-03-16T20:19:29.347Z,16.54
2023-03-16T20:21:57.890Z,16.51
2023-03-16T20:24:28.436Z,16.59
2023-03-16T20:26:55.518Z,16.58
2023-03-16T20:29:35.156Z,16.61
2023-03-16T20:32:07.582Z,16.65
2023-03-16T20:34:35.008Z,16.68
2023-03-16T20:37:02.862Z,16.73
2023-03-16T20:39:30.013Z,16.79
2023-03-16T20:41:57.430Z,16.85
2023-03-16T20:44:25.776Z,16.93
2023-03-16T20:46:52.947Z,17.00
2023-03-16T20:49:23.342Z,17.07
2023-03-16T20:51:52.997Z,17.15
2023-03-16T20:54:23.617Z,17.23
2023-03-16T20:56:52.035Z,17.32
2023-03-16T20:59:24.334Z,17.39
2023-03-16T21:01:55.206Z,17.48
2023-03-16T21:04:26.237Z,17.52
2023-03-16T21:06:54.733Z,17.58
2023-03-16T21:09:23.695Z,17.62
2023-03-16T21:11:51.804Z,17.68
2023-03-16T21:14:23.834Z,17.72
2023-03-16T21:16:51.802Z,17.78
2023-03-16T21:19:21.578Z,17.82
2023-03-16T21:21:52.198Z,17.89
2023-03-16T21:24:19.737Z,17.92
2023-03-16T21:26:47.760Z,17.93
2023-03-16T21:29:19.050Z,17.97
2023-03-16T21:31:46.484Z,17.97
2023-03-16T21:34:27.672Z,17.99
2023-03-16T21:36:54.836Z,18.07
2023-03-16T21:39:25.599Z,18.04
2023-03-16T21:41:54.744Z,18.06
2023-03-16T21:44:22.156Z,18.11
2023-03-16T21:46:52.930Z,18.11
2023-03-16T21:49:22.165Z,18.09
2023-03-16T21:51:51.574Z,18.10
2023-03-16T21:54:19.990Z,18.12
2023-03-16T21:56:50.823Z,18.15
2023-03-16T21:59:18.129Z,18.11
2023-03-16T22:02:00.769Z,18.12
2023-03-16T22:04:29.471Z,18.21
2023-03-16T22:06:56.495Z,18.26
2023-03-16T22:09:25.353Z,18.26
2023-03-16T22:11:52.564Z,18.27
2023-03-16T22:14:19.732Z,18.27
2023-03-16T22:16:47.001Z,18.26
2023-03-16T22:19:18.260Z,18.22
2023-03-16T22:21:47.538Z,18.24
2023-03-16T22:24:19.981Z,18.22
2023-03-16T22:26:49.509Z,18.12
2023-03-16T22:29:31.429Z,18.04
2023-03-16T22:32:05.673Z,18.04
2023-03-16T22:34:46.723Z,18.00
2023-03-16T22:37:19.043Z,17.91
2023-03-16T22:39:46.444Z,17.38
2023-03-16T22:42:19.624Z,17.43
2023-03-16T22:44:47.257Z,17.35
2023-03-16T22:47:26.665Z,17.22
2023-03-16T22:49:54.280Z,17.14
2023-03-16T22:52:28.599Z,17.06
2023-03-16T22:54:56.236Z,17.00
2023-03-16T22:57:23.315Z,16.94
2023-03-16T22:59:51.309Z,16.88
2023-03-16T23:02:21.233Z,16.81
2023-03-16T23:04:48.136Z,16.76
2023-03-16T23:07:15.364Z,16.71
2023-03-16T23:09:42.312Z,16.66
2023-03-16T23:12:19.638Z,16.59
2023-03-16T23:14:46.603Z,16.54
2023-03-16T23:17:22.827Z,16.47
2023-03-16T23:19:49.811Z,16.44
2023-03-16T23:22:17.281Z,16.38
2023-03-16T23:24:44.179Z,16.34
2023-03-16T23:27:20.094Z,16.30
2023-03-16T23:29:47.195Z,16.26
2023-03-16T23:32:17.271Z,16.22
2023-03-16T23:34:44.754Z,16.19
2023-03-16T23:37:12.189Z,16.15
2023-03-16T23:39:40.100Z,16.14
2023-03-16T23:42:07.797Z,16.11
2023-03-16T23:44:35.056Z,16.07
2023-03-16T23:47:02.426Z,16.03
2023-03-16T23:49:33.060Z,15.99
2023-03-16T23:52:01.920Z,15.98
2023-03-16T23:54:31.898Z,15.94
2023-03-16T23:56:59.574Z,15.89
2023-03-16T23:59:26.883Z,15.86
